Bookmark and Share
Track history (hours):
 

MSC Caracas

Last reported at 2014-Apr-16 02:00 UTC. Time now 2014-Apr-16 19:16 UTC.
Position N 32°00' W 010°18'.

Length 207.4 m; beam 29.8 m; draft 11.4 m.

Type: Ship (hazmat cat A). MMSI: 211283670.

Wind from 040 at 19 knots

Waves 0.5 meters (2 feet), 5 second period

Barometer 1019.5 mb
Air temperature 17.0 ° C
Visibility: greater than 10.8 NM
Dewpoint 13.7 ° C
Water temperature 17.0 ° C

NotesDate/timePositionNaut miles runAvg speedWind from/ knotsBaromVisibWave heightAir tempDewpointWater temp
2014-Apr-16 02:00N 32°00' W 010°18'34210.5 040 / 191019.510.8 0.517.013.717.0
2014-Apr-14 17:34N 36°01' W 005°25'8 8.3
2014-Apr-14 16:33N 36°09' W 005°26'0 0.1
2014-Apr-14 13:30N 36°09' W 005°26'0 0.0
2014-Apr-14 06:33N 36°09' W 005°26'0 0.0
2014-Apr-13 22:33N 36°09' W 005°26'0 0.0
2014-Apr-13 21:33N 36°09' W 005°26'0 0.0
2014-Apr-13 20:15N 36°09' W 005°26'0 0.0
2014-Apr-13 19:24N 36°09' W 005°26'0 0.0
2014-Apr-13 18:30N 36°09' W 005°26'0 0.0
2014-Apr-13 17:24N 36°09' W 005°26'0 0.0
2014-Apr-13 16:27N 36°09' W 005°26'0 0.0
2014-Apr-13 15:27N 36°09' W 005°26'0 0.0
2014-Apr-13 14:21N 36°09' W 005°26'0 0.0
2014-Apr-13 13:33N 36°09' W 005°26'0 0.0
2014-Apr-13 12:15N 36°09' W 005°26'2 2.5
2014-Apr-13 11:33N 36°08' W 005°24'1010.2
2014-Apr-13 10:33N 35°58' W 005°25'6 1.0
2014-Apr-13 04:32N 35°53' W 005°30'0 0.0
2014-Apr-13 03:25N 35°53' W 005°30'0 0.0
2014-Apr-13 02:23N 35°53' W 005°30'0 0.0
2014-Apr-13 01:21N 35°53' W 005°30'0 0.0
2014-Apr-13 00:18N 35°53' W 005°30'0 0.0
2014-Apr-12 07:27N 35°53' W 005°30'3 2.9
2014-Apr-12 06:30N 35°53' W 005°33'1 0.2
2014-Apr-12 01:32N 35°53' W 005°35'9 8.5
2014-Apr-12 00:31N 35°54' W 005°45'9 9.0
2014-Apr-11 23:33N 35°53' W 005°56'1310.4
2014-Apr-11 22:18N 35°53' W 006°12'13 1.9
2014-Apr-11 15:30N 36°05' W 006°19'0 0.0
2014-Apr-11 14:27N 36°05' W 006°19'0 0.0
2014-Apr-11 13:27N 36°05' W 006°19'0 0.0
2014-Apr-11 12:33N 36°05' W 006°19'0 0.0
2014-Apr-11 11:33N 36°05' W 006°19'0 0.0
2014-Apr-10 21:05N 36°05' W 006°19'6 7.7
2014-Apr-10 20:21N 35°60' W 006°22'1210.4
2014-Apr-10 19:10N 35°49' W 006°29'4210.6
2014-Apr-10 15:15N 35°17' W 007°01'811.5
2014-Apr-10 14:32N 35°10' W 007°07'1111.2
2014-Apr-10 13:33N 35°02' W 007°15'15711.1
2014-Apr-09 23:20N 33°08' W 009°27'910.9
2014-Apr-09 22:33N 33°01' W 009°33'28611.2
2014-Apr-08 21:00N 29°06' W 012°42'   210 / 41016.010.8 18.014.8
2014-Apr-06 04:00N 18°42' W 017°42'   300 / 111014.010.8 2.520.015.319.0

Dump ship's entire track history

sailing weather and tide predictions

MSC Caracas — DGZN — position and weather